sensor_id;sensor_type;location;lat;lon;timestamp;P1;durP1;ratioP1;P2;durP2;ratioP2
40288;SDS011;28991;52.028;5.526;2023-09-19T00:01:06;0.90;;;0.60;;
40288;SDS011;28991;52.028;5.526;2023-09-19T00:03:37;0.80;;;0.77;;
40288;SDS011;28991;52.028;5.526;2023-09-19T00:06:03;0.60;;;0.60;;
40288;SDS011;28991;52.028;5.526;2023-09-19T00:08:30;1.10;;;0.73;;
40288;SDS011;28991;52.028;5.526;2023-09-19T00:10:58;0.73;;;0.55;;
40288;SDS011;28991;52.028;5.526;2023-09-19T00:13:30;0.80;;;0.70;;
40288;SDS011;28991;52.028;5.526;2023-09-19T00:15:57;1.42;;;0.90;;
40288;SDS011;28991;52.028;5.526;2023-09-19T00:18:24;1.05;;;0.80;;
40288;SDS011;28991;52.028;5.526;2023-09-19T00:20:53;2.50;;;0.85;;
40288;SDS011;28991;52.028;5.526;2023-09-19T00:23:22;0.50;;;0.50;;
40288;SDS011;28991;52.028;5.526;2023-09-19T00:25:49;0.98;;;0.77;;
40288;SDS011;28991;52.028;5.526;2023-09-19T00:28:16;0.88;;;0.70;;
40288;SDS011;28991;52.028;5.526;2023-09-19T00:30:43;0.60;;;0.60;;
40288;SDS011;28991;52.028;5.526;2023-09-19T00:33:09;0.65;;;0.60;;
40288;SDS011;28991;52.028;5.526;2023-09-19T00:35:36;0.70;;;0.63;;
40288;SDS011;28991;52.028;5.526;2023-09-19T00:38:02;1.58;;;0.75;;
40288;SDS011;28991;52.028;5.526;2023-09-19T00:40:28;1.35;;;0.77;;
40288;SDS011;28991;52.028;5.526;2023-09-19T00:42:58;0.65;;;0.65;;
40288;SDS011;28991;52.028;5.526;2023-09-19T00:45:25;0.60;;;0.52;;
40288;SDS011;28991;52.028;5.526;2023-09-19T00:47:51;1.02;;;0.93;;
40288;SDS011;28991;52.028;5.526;2023-09-19T00:50:17;0.73;;;0.70;;
40288;SDS011;28991;52.028;5.526;2023-09-19T00:52:44;1.20;;;1.10;;
40288;SDS011;28991;52.028;5.526;2023-09-19T00:55:12;0.45;;;0.43;;
40288;SDS011;28991;52.028;5.526;2023-09-19T00:57:41;0.85;;;0.85;;
40288;SDS011;28991;52.028;5.526;2023-09-19T01:00:07;0.57;;;0.57;;
40288;SDS011;28991;52.028;5.526;2023-09-19T01:02:37;1.02;;;0.88;;
40288;SDS011;28991;52.028;5.526;2023-09-19T01:05:02;0.80;;;0.80;;
40288;SDS011;28991;52.028;5.526;2023-09-19T01:07:29;1.20;;;0.80;;
40288;SDS011;28991;52.028;5.526;2023-09-19T01:09:58;0.57;;;0.52;;
40288;SDS011;28991;52.028;5.526;2023-09-19T01:12:36;1.27;;;1.00;;
40288;SDS011;28991;52.028;5.526;2023-09-19T01:15:10;2.97;;;1.00;;
40288;SDS011;28991;52.028;5.526;2023-09-19T01:17:49;0.90;;;0.73;;
40288;SDS011;28991;52.028;5.526;2023-09-19T01:23:00;0.60;;;0.60;;
40288;SDS011;28991;52.028;5.526;2023-09-19T01:30:46;1.02;;;0.73;;
40288;SDS011;28991;52.028;5.526;2023-09-19T01:33:16;1.20;;;0.63;;
40288;SDS011;28991;52.028;5.526;2023-09-19T01:35:42;0.60;;;0.52;;
40288;SDS011;28991;52.028;5.526;2023-09-19T01:38:07;0.90;;;0.90;;
40288;SDS011;28991;52.028;5.526;2023-09-19T01:40:39;0.88;;;0.88;;
40288;SDS011;28991;52.028;5.526;2023-09-19T01:46:07;0.90;;;0.73;;
40288;SDS011;28991;52.028;5.526;2023-09-19T01:48:54;1.00;;;0.90;;
40288;SDS011;28991;52.028;5.526;2023-09-19T01:54:27;1.30;;;0.80;;
40288;SDS011;28991;52.028;5.526;2023-09-19T01:56:59;0.95;;;0.90;;
40288;SDS011;28991;52.028;5.526;2023-09-19T01:59:34;1.10;;;0.90;;
40288;SDS011;28991;52.028;5.526;2023-09-19T02:02:05;0.60;;;0.60;;
40288;SDS011;28991;52.028;5.526;2023-09-19T02:04:32;0.77;;;0.73;;
40288;SDS011;28991;52.028;5.526;2023-09-19T02:06:59;0.70;;;0.70;;
40288;SDS011;28991;52.028;5.526;2023-09-19T02:09:26;0.60;;;0.60;;
40288;SDS011;28991;52.028;5.526;2023-09-19T02:11:52;0.60;;;0.60;;
40288;SDS011;28991;52.028;5.526;2023-09-19T02:14:17;0.73;;;0.70;;
40288;SDS011;28991;52.028;5.526;2023-09-19T02:16:44;0.75;;;0.70;;
40288;SDS011;28991;52.028;5.526;2023-09-19T02:19:11;0.85;;;0.85;;
40288;SDS011;28991;52.028;5.526;2023-09-19T02:21:36;1.23;;;0.85;;
40288;SDS011;28991;52.028;5.526;2023-09-19T02:24:04;0.90;;;0.75;;
40288;SDS011;28991;52.028;5.526;2023-09-19T02:26:32;1.00;;;0.65;;
40288;SDS011;28991;52.028;5.526;2023-09-19T02:29:01;0.73;;;0.60;;
40288;SDS011;28991;52.028;5.526;2023-09-19T02:31:29;0.70;;;0.70;;
40288;SDS011;28991;52.028;5.526;2023-09-19T02:33:55;1.02;;;0.60;;
40288;SDS011;28991;52.028;5.526;2023-09-19T02:36:21;0.98;;;0.65;;
40288;SDS011;28991;52.028;5.526;2023-09-19T02:38:48;0.70;;;0.70;;
40288;SDS011;28991;52.028;5.526;2023-09-19T02:41:14;1.20;;;1.00;;
40288;SDS011;28991;52.028;5.526;2023-09-19T02:43:39;1.13;;;0.73;;
40288;SDS011;28991;52.028;5.526;2023-09-19T02:46:05;0.80;;;0.80;;
40288;SDS011;28991;52.028;5.526;2023-09-19T02:48:30;0.70;;;0.70;;
40288;SDS011;28991;52.028;5.526;2023-09-19T02:50:57;0.77;;;0.70;;
40288;SDS011;28991;52.028;5.526;2023-09-19T02:53:22;0.60;;;0.60;;
40288;SDS011;28991;52.028;5.526;2023-09-19T02:55:49;0.60;;;0.50;;
40288;SDS011;28991;52.028;5.526;2023-09-19T02:58:14;0.70;;;0.63;;
40288;SDS011;28991;52.028;5.526;2023-09-19T03:00:40;0.77;;;0.77;;
40288;SDS011;28991;52.028;5.526;2023-09-19T03:03:07;0.88;;;0.75;;
40288;SDS011;28991;52.028;5.526;2023-09-19T03:05:33;0.60;;;0.60;;
40288;SDS011;28991;52.028;5.526;2023-09-19T03:08:00;0.70;;;0.50;;
40288;SDS011;28991;52.028;5.526;2023-09-19T03:10:26;1.45;;;0.90;;
40288;SDS011;28991;52.028;5.526;2023-09-19T03:12:53;1.17;;;0.80;;
40288;SDS011;28991;52.028;5.526;2023-09-19T03:15:18;0.85;;;0.65;;
40288;SDS011;28991;52.028;5.526;2023-09-19T03:17:44;0.75;;;0.63;;
40288;SDS011;28991;52.028;5.526;2023-09-19T03:20:11;0.63;;;0.55;;
40288;SDS011;28991;52.028;5.526;2023-09-19T03:22:38;0.70;;;0.65;;
40288;SDS011;28991;52.028;5.526;2023-09-19T03:25:05;1.95;;;0.75;;
40288;SDS011;28991;52.028;5.526;2023-09-19T03:27:33;0.80;;;0.60;;
40288;SDS011;28991;52.028;5.526;2023-09-19T03:29:59;1.15;;;0.80;;
40288;SDS011;28991;52.028;5.526;2023-09-19T03:32:25;1.10;;;1.00;;
40288;SDS011;28991;52.028;5.526;2023-09-19T03:34:51;0.70;;;0.60;;
40288;SDS011;28991;52.028;5.526;2023-09-19T03:37:17;0.77;;;0.73;;
40288;SDS011;28991;52.028;5.526;2023-09-19T03:39:43;0.80;;;0.77;;
40288;SDS011;28991;52.028;5.526;2023-09-19T03:42:08;0.73;;;0.73;;
40288;SDS011;28991;52.028;5.526;2023-09-19T03:44:34;0.70;;;0.60;;
40288;SDS011;28991;52.028;5.526;2023-09-19T03:47:00;0.85;;;0.68;;
40288;SDS011;28991;52.028;5.526;2023-09-19T03:49:26;0.70;;;0.68;;
40288;SDS011;28991;52.028;5.526;2023-09-19T03:51:51;1.77;;;0.68;;
40288;SDS011;28991;52.028;5.526;2023-09-19T03:54:17;0.40;;;0.40;;
40288;SDS011;28991;52.028;5.526;2023-09-19T03:56:44;0.73;;;0.60;;
40288;SDS011;28991;52.028;5.526;2023-09-19T03:59:10;1.00;;;0.60;;
40288;SDS011;28991;52.028;5.526;2023-09-19T04:01:37;0.60;;;0.60;;
40288;SDS011;28991;52.028;5.526;2023-09-19T04:04:02;0.50;;;0.50;;
40288;SDS011;28991;52.028;5.526;2023-09-19T04:06:36;0.75;;;0.70;;
40288;SDS011;28991;52.028;5.526;2023-09-19T04:09:02;0.60;;;0.60;;
40288;SDS011;28991;52.028;5.526;2023-09-19T04:11:28;0.98;;;0.60;;
40288;SDS011;28991;52.028;5.526;2023-09-19T04:13:55;1.45;;;0.80;;
40288;SDS011;28991;52.028;5.526;2023-09-19T04:16:21;1.17;;;0.70;;
40288;SDS011;28991;52.028;5.526;2023-09-19T04:18:47;1.73;;;0.90;;
40288;SDS011;28991;52.028;5.526;2023-09-19T04:21:12;2.92;;;0.98;;
40288;SDS011;28991;52.028;5.526;2023-09-19T04:23:38;2.80;;;0.80;;
40288;SDS011;28991;52.028;5.526;2023-09-19T04:26:03;1.45;;;0.80;;
40288;SDS011;28991;52.028;5.526;2023-09-19T04:28:29;2.15;;;0.90;;
40288;SDS011;28991;52.028;5.526;2023-09-19T04:30:56;1.50;;;1.00;;
40288;SDS011;28991;52.028;5.526;2023-09-19T04:33:22;1.20;;;0.82;;
40288;SDS011;28991;52.028;5.526;2023-09-19T04:35:51;2.42;;;0.90;;
40288;SDS011;28991;52.028;5.526;2023-09-19T04:38:17;1.75;;;1.08;;
40288;SDS011;28991;52.028;5.526;2023-09-19T04:40:44;2.08;;;0.93;;
40288;SDS011;28991;52.028;5.526;2023-09-19T04:43:10;1.65;;;0.90;;
40288;SDS011;28991;52.028;5.526;2023-09-19T04:45:35;1.50;;;0.80;;
40288;SDS011;28991;52.028;5.526;2023-09-19T04:48:04;1.33;;;0.80;;
40288;SDS011;28991;52.028;5.526;2023-09-19T04:50:31;1.08;;;0.80;;
40288;SDS011;28991;52.028;5.526;2023-09-19T04:52:59;2.20;;;1.20;;
40288;SDS011;28991;52.028;5.526;2023-09-19T04:55:25;2.38;;;1.00;;
40288;SDS011;28991;52.028;5.526;2023-09-19T04:57:51;3.45;;;0.82;;
40288;SDS011;28991;52.028;5.526;2023-09-19T05:00:18;1.40;;;0.85;;
40288;SDS011;28991;52.028;5.526;2023-09-19T05:02:51;1.77;;;0.85;;
40288;SDS011;28991;52.028;5.526;2023-09-19T05:05:17;1.73;;;0.90;;
40288;SDS011;28991;52.028;5.526;2023-09-19T05:07:44;1.65;;;0.65;;
40288;SDS011;28991;52.028;5.526;2023-09-19T05:10:10;1.38;;;0.80;;
40288;SDS011;28991;52.028;5.526;2023-09-19T05:12:38;2.05;;;0.70;;
40288;SDS011;28991;52.028;5.526;2023-09-19T05:15:04;2.15;;;0.80;;
40288;SDS011;28991;52.028;5.526;2023-09-19T05:17:34;1.30;;;0.80;;
40288;SDS011;28991;52.028;5.526;2023-09-19T05:20:00;1.67;;;0.77;;
40288;SDS011;28991;52.028;5.526;2023-09-19T05:22:40;0.80;;;0.60;;
40288;SDS011;28991;52.028;5.526;2023-09-19T05:25:06;1.50;;;0.80;;
40288;SDS011;28991;52.028;5.526;2023-09-19T05:27:32;1.05;;;0.52;;
40288;SDS011;28991;52.028;5.526;2023-09-19T05:29:58;0.95;;;0.70;;
40288;SDS011;28991;52.028;5.526;2023-09-19T05:32:24;1.17;;;0.65;;
40288;SDS011;28991;52.028;5.526;2023-09-19T05:34:50;2.00;;;0.85;;
40288;SDS011;28991;52.028;5.526;2023-09-19T05:37:18;1.10;;;0.70;;
40288;SDS011;28991;52.028;5.526;2023-09-19T05:39:44;3.05;;;1.08;;
40288;SDS011;28991;52.028;5.526;2023-09-19T05:42:10;1.65;;;0.90;;
40288;SDS011;28991;52.028;5.526;2023-09-19T05:44:35;1.77;;;0.95;;
40288;SDS011;28991;52.028;5.526;2023-09-19T05:47:01;2.63;;;0.80;;
40288;SDS011;28991;52.028;5.526;2023-09-19T05:49:28;0.77;;;0.50;;
40288;SDS011;28991;52.028;5.526;2023-09-19T05:51:53;2.00;;;0.90;;
40288;SDS011;28991;52.028;5.526;2023-09-19T05:54:21;1.77;;;0.95;;
40288;SDS011;28991;52.028;5.526;2023-09-19T05:56:47;1.10;;;0.68;;
40288;SDS011;28991;52.028;5.526;2023-09-19T05:59:13;1.48;;;0.82;;
40288;SDS011;28991;52.028;5.526;2023-09-19T06:01:41;2.28;;;0.95;;
40288;SDS011;28991;52.028;5.526;2023-09-19T06:04:09;0.85;;;0.55;;
40288;SDS011;28991;52.028;5.526;2023-09-19T06:06:35;9.23;;;1.98;;
40288;SDS011;28991;52.028;5.526;2023-09-19T06:09:04;2.38;;;0.70;;
40288;SDS011;28991;52.028;5.526;2023-09-19T06:11:30;1.30;;;0.60;;
40288;SDS011;28991;52.028;5.526;2023-09-19T06:13:59;1.52;;;0.75;;
40288;SDS011;28991;52.028;5.526;2023-09-19T06:16:27;0.85;;;0.60;;
40288;SDS011;28991;52.028;5.526;2023-09-19T06:18:57;4.78;;;0.80;;
40288;SDS011;28991;52.028;5.526;2023-09-19T06:21:25;1.92;;;0.85;;
40288;SDS011;28991;52.028;5.526;2023-09-19T06:23:52;1.40;;;0.80;;
40288;SDS011;28991;52.028;5.526;2023-09-19T06:26:22;1.48;;;0.70;;
40288;SDS011;28991;52.028;5.526;2023-09-19T06:28:48;2.30;;;0.82;;
40288;SDS011;28991;52.028;5.526;2023-09-19T06:31:14;1.15;;;0.70;;
40288;SDS011;28991;52.028;5.526;2023-09-19T06:33:40;2.45;;;0.90;;
40288;SDS011;28991;52.028;5.526;2023-09-19T06:36:06;1.77;;;0.75;;
40288;SDS011;28991;52.028;5.526;2023-09-19T06:38:32;3.35;;;1.10;;
40288;SDS011;28991;52.028;5.526;2023-09-19T06:41:00;1.65;;;0.98;;
40288;SDS011;28991;52.028;5.526;2023-09-19T06:43:30;1.38;;;0.80;;
40288;SDS011;28991;52.028;5.526;2023-09-19T06:45:57;2.15;;;0.88;;
40288;SDS011;28991;52.028;5.526;2023-09-19T06:48:24;3.45;;;1.15;;
40288;SDS011;28991;52.028;5.526;2023-09-19T06:50:50;1.25;;;0.85;;
40288;SDS011;28991;52.028;5.526;2023-09-19T06:53:17;1.60;;;0.73;;
40288;SDS011;28991;52.028;5.526;2023-09-19T06:55:43;1.15;;;0.70;;
40288;SDS011;28991;52.028;5.526;2023-09-19T06:58:10;1.80;;;0.70;;
40288;SDS011;28991;52.028;5.526;2023-09-19T07:00:36;1.38;;;0.82;;
40288;SDS011;28991;52.028;5.526;2023-09-19T07:03:06;1.80;;;0.80;;
40288;SDS011;28991;52.028;5.526;2023-09-19T07:05:37;1.83;;;1.00;;
40288;SDS011;28991;52.028;5.526;2023-09-19T07:08:04;3.67;;;1.00;;
40288;SDS011;28991;52.028;5.526;2023-09-19T07:10:31;1.15;;;0.70;;
40288;SDS011;28991;52.028;5.526;2023-09-19T07:12:58;3.80;;;0.80;;
40288;SDS011;28991;52.028;5.526;2023-09-19T07:15:34;1.33;;;0.68;;
40288;SDS011;28991;52.028;5.526;2023-09-19T07:18:06;3.13;;;0.70;;
40288;SDS011;28991;52.028;5.526;2023-09-19T07:20:36;3.45;;;1.08;;
40288;SDS011;28991;52.028;5.526;2023-09-19T07:23:02;1.25;;;0.85;;
40288;SDS011;28991;52.028;5.526;2023-09-19T07:25:28;1.02;;;0.60;;
40288;SDS011;28991;52.028;5.526;2023-09-19T07:27:57;1.08;;;0.63;;
40288;SDS011;28991;52.028;5.526;2023-09-19T07:30:25;2.22;;;0.75;;
40288;SDS011;28991;52.028;5.526;2023-09-19T07:32:51;2.78;;;1.00;;
40288;SDS011;28991;52.028;5.526;2023-09-19T07:35:17;1.67;;;0.73;;
40288;SDS011;28991;52.028;5.526;2023-09-19T07:37:45;2.53;;;1.05;;
40288;SDS011;28991;52.028;5.526;2023-09-19T07:40:14;2.13;;;1.38;;
40288;SDS011;28991;52.028;5.526;2023-09-19T07:42:40;3.28;;;1.27;;
40288;SDS011;28991;52.028;5.526;2023-09-19T07:45:08;1.63;;;1.10;;
40288;SDS011;28991;52.028;5.526;2023-09-19T07:47:34;3.58;;;1.30;;
40288;SDS011;28991;52.028;5.526;2023-09-19T07:50:01;5.57;;;1.20;;
40288;SDS011;28991;52.028;5.526;2023-09-19T07:52:27;2.90;;;1.13;;
40288;SDS011;28991;52.028;5.526;2023-09-19T07:54:53;1.50;;;0.93;;
40288;SDS011;28991;52.028;5.526;2023-09-19T07:57:20;2.83;;;1.02;;
40288;SDS011;28991;52.028;5.526;2023-09-19T07:59:45;1.50;;;1.00;;
40288;SDS011;28991;52.028;5.526;2023-09-19T08:02:11;3.50;;;1.27;;
40288;SDS011;28991;52.028;5.526;2023-09-19T08:04:46;4.13;;;0.85;;
40288;SDS011;28991;52.028;5.526;2023-09-19T08:07:12;3.42;;;0.93;;
40288;SDS011;28991;52.028;5.526;2023-09-19T08:09:40;3.97;;;1.00;;
40288;SDS011;28991;52.028;5.526;2023-09-19T08:12:07;5.22;;;1.00;;
40288;SDS011;28991;52.028;5.526;2023-09-19T08:14:36;2.42;;;0.90;;
40288;SDS011;28991;52.028;5.526;2023-09-19T08:17:06;2.20;;;0.75;;
40288;SDS011;28991;52.028;5.526;2023-09-19T08:19:33;2.28;;;0.77;;
40288;SDS011;28991;52.028;5.526;2023-09-19T08:21:59;2.95;;;1.08;;
40288;SDS011;28991;52.028;5.526;2023-09-19T08:24:27;1.63;;;0.85;;
40288;SDS011;28991;52.028;5.526;2023-09-19T08:26:54;2.55;;;0.95;;
40288;SDS011;28991;52.028;5.526;2023-09-19T08:29:21;2.17;;;0.80;;
40288;SDS011;28991;52.028;5.526;2023-09-19T08:34:18;5.07;;;1.52;;
40288;SDS011;28991;52.028;5.526;2023-09-19T08:36:44;2.13;;;0.90;;
40288;SDS011;28991;52.028;5.526;2023-09-19T08:39:10;5.22;;;0.90;;
40288;SDS011;28991;52.028;5.526;2023-09-19T08:41:36;2.47;;;1.17;;
40288;SDS011;28991;52.028;5.526;2023-09-19T08:44:02;11.98;;;1.40;;
40288;SDS011;28991;52.028;5.526;2023-09-19T08:46:28;1.55;;;1.08;;
40288;SDS011;28991;52.028;5.526;2023-09-19T08:49:17;2.83;;;0.98;;
40288;SDS011;28991;52.028;5.526;2023-09-19T08:51:53;3.28;;;1.30;;
40288;SDS011;28991;52.028;5.526;2023-09-19T08:54:27;2.50;;;0.88;;
40288;SDS011;28991;52.028;5.526;2023-09-19T08:56:58;8.05;;;1.45;;
40288;SDS011;28991;52.028;5.526;2023-09-19T08:59:33;8.40;;;0.98;;
40288;SDS011;28991;52.028;5.526;2023-09-19T09:02:00;3.28;;;1.55;;
40288;SDS011;28991;52.028;5.526;2023-09-19T09:04:29;4.40;;;1.00;;
40288;SDS011;28991;52.028;5.526;2023-09-19T09:06:55;2.08;;;1.63;;
40288;SDS011;28991;52.028;5.526;2023-09-19T09:09:23;2.78;;;1.00;;
40288;SDS011;28991;52.028;5.526;2023-09-19T09:11:49;1.75;;;0.95;;
40288;SDS011;28991;52.028;5.526;2023-09-19T09:14:18;7.10;;;1.60;;
40288;SDS011;28991;52.028;5.526;2023-09-19T09:16:44;4.63;;;1.13;;
40288;SDS011;28991;52.028;5.526;2023-09-19T09:19:10;2.40;;;1.10;;
40288;SDS011;28991;52.028;5.526;2023-09-19T09:21:37;4.40;;;1.30;;
40288;SDS011;28991;52.028;5.526;2023-09-19T09:24:50;4.72;;;0.90;;
40288;SDS011;28991;52.028;5.526;2023-09-19T09:26:59;1.90;;;0.93;;
40288;SDS011;28991;52.028;5.526;2023-09-19T09:29:44;3.13;;;1.38;;
40288;SDS011;28991;52.028;5.526;2023-09-19T09:32:17;2.75;;;1.08;;
40288;SDS011;28991;52.028;5.526;2023-09-19T09:34:43;3.40;;;1.20;;
40288;SDS011;28991;52.028;5.526;2023-09-19T09:37:16;3.13;;;1.35;;
40288;SDS011;28991;52.028;5.526;2023-09-19T09:42:35;2.25;;;1.05;;
40288;SDS011;28991;52.028;5.526;2023-09-19T09:45:13;1.92;;;0.88;;
40288;SDS011;28991;52.028;5.526;2023-09-19T09:47:44;1.95;;;0.80;;
40288;SDS011;28991;52.028;5.526;2023-09-19T09:52:55;2.20;;;0.95;;
40288;SDS011;28991;52.028;5.526;2023-09-19T09:55:36;3.20;;;1.15;;
40288;SDS011;28991;52.028;5.526;2023-09-19T09:58:37;1.23;;;0.82;;
40288;SDS011;28991;52.028;5.526;2023-09-19T10:01:19;4.95;;;1.42;;
40288;SDS011;28991;52.028;5.526;2023-09-19T10:03:46;3.90;;;1.25;;
40288;SDS011;28991;52.028;5.526;2023-09-19T10:06:18;2.90;;;1.10;;
40288;SDS011;28991;52.028;5.526;2023-09-19T10:11:45;2.90;;;0.90;;
40288;SDS011;28991;52.028;5.526;2023-09-19T10:14:16;4.95;;;1.15;;
40288;SDS011;28991;52.028;5.526;2023-09-19T10:16:48;1.73;;;0.93;;
40288;SDS011;28991;52.028;5.526;2023-09-19T10:19:21;2.88;;;0.98;;
40288;SDS011;28991;52.028;5.526;2023-09-19T10:21:55;1.98;;;1.00;;
40288;SDS011;28991;52.028;5.526;2023-09-19T10:24:22;2.13;;;0.93;;
40288;SDS011;28991;52.028;5.526;2023-09-19T10:26:50;3.42;;;1.10;;
40288;SDS011;28991;52.028;5.526;2023-09-19T10:29:16;2.40;;;1.08;;
40288;SDS011;28991;52.028;5.526;2023-09-19T10:31:44;4.65;;;1.42;;
40288;SDS011;28991;52.028;5.526;2023-09-19T10:34:15;4.22;;;1.27;;
40288;SDS011;28991;52.028;5.526;2023-09-19T10:36:45;3.15;;;1.38;;
40288;SDS011;28991;52.028;5.526;2023-09-19T10:39:15;3.45;;;1.95;;
40288;SDS011;28991;52.028;5.526;2023-09-19T10:41:44;7.18;;;1.80;;
40288;SDS011;28991;52.028;5.526;2023-09-19T10:44:19;9.18;;;1.40;;
40288;SDS011;28991;52.028;5.526;2023-09-19T10:46:53;5.32;;;1.63;;
40288;SDS011;28991;52.028;5.526;2023-09-19T10:49:20;2.40;;;1.40;;
40288;SDS011;28991;52.028;5.526;2023-09-19T10:51:46;4.63;;;1.30;;
40288;SDS011;28991;52.028;5.526;2023-09-19T10:54:16;4.88;;;1.30;;
40288;SDS011;28991;52.028;5.526;2023-09-19T10:56:48;2.38;;;1.00;;
40288;SDS011;28991;52.028;5.526;2023-09-19T10:59:16;2.15;;;1.08;;
40288;SDS011;28991;52.028;5.526;2023-09-19T11:01:44;2.22;;;0.93;;
40288;SDS011;28991;52.028;5.526;2023-09-19T11:04:29;2.85;;;1.10;;
40288;SDS011;28991;52.028;5.526;2023-09-19T11:07:14;2.70;;;1.15;;
40288;SDS011;28991;52.028;5.526;2023-09-19T11:14:59;4.70;;;1.80;;
40288;SDS011;28991;52.028;5.526;2023-09-19T11:17:30;4.00;;;1.20;;
40288;SDS011;28991;52.028;5.526;2023-09-19T11:30:53;3.78;;;1.10;;
40288;SDS011;28991;52.028;5.526;2023-09-19T11:36:01;3.72;;;0.98;;
40288;SDS011;28991;52.028;5.526;2023-09-19T11:46:51;4.38;;;1.10;;
40288;SDS011;28991;52.028;5.526;2023-09-19T11:49:18;4.60;;;1.23;;
40288;SDS011;28991;52.028;5.526;2023-09-19T11:51:48;4.18;;;1.15;;
40288;SDS011;28991;52.028;5.526;2023-09-19T11:54:19;4.93;;;1.27;;
40288;SDS011;28991;52.028;5.526;2023-09-19T11:56:47;4.20;;;1.00;;
40288;SDS011;28991;52.028;5.526;2023-09-19T11:59:21;4.20;;;1.00;;
40288;SDS011;28991;52.028;5.526;2023-09-19T12:01:51;1.45;;;0.80;;
40288;SDS011;28991;52.028;5.526;2023-09-19T12:04:32;1.95;;;0.80;;
40288;SDS011;28991;52.028;5.526;2023-09-19T12:06:58;2.40;;;0.60;;
40288;SDS011;28991;52.028;5.526;2023-09-19T12:09:24;1.65;;;0.73;;
40288;SDS011;28991;52.028;5.526;2023-09-19T12:11:50;1.80;;;0.70;;
40288;SDS011;28991;52.028;5.526;2023-09-19T12:14:25;2.08;;;1.00;;
40288;SDS011;28991;52.028;5.526;2023-09-19T12:16:55;3.80;;;1.00;;
40288;SDS011;28991;52.028;5.526;2023-09-19T12:19:22;3.03;;;1.08;;
40288;SDS011;28991;52.028;5.526;2023-09-19T12:21:58;2.75;;;0.60;;
40288;SDS011;28991;52.028;5.526;2023-09-19T12:24:29;1.98;;;0.70;;
40288;SDS011;28991;52.028;5.526;2023-09-19T12:26:59;1.58;;;0.98;;
40288;SDS011;28991;52.028;5.526;2023-09-19T12:29:30;2.58;;;0.70;;
40288;SDS011;28991;52.028;5.526;2023-09-19T12:31:57;1.98;;;0.80;;
40288;SDS011;28991;52.028;5.526;2023-09-19T12:34:24;2.17;;;0.70;;
40288;SDS011;28991;52.028;5.526;2023-09-19T12:40:03;2.80;;;0.70;;
40288;SDS011;28991;52.028;5.526;2023-09-19T12:42:40;8.95;;;1.45;;
40288;SDS011;28991;52.028;5.526;2023-09-19T12:45:07;3.80;;;1.40;;
40288;SDS011;28991;52.028;5.526;2023-09-19T12:47:34;2.15;;;0.77;;
40288;SDS011;28991;52.028;5.526;2023-09-19T12:50:10;2.58;;;0.77;;
40288;SDS011;28991;52.028;5.526;2023-09-19T12:52:54;1.55;;;0.70;;
40288;SDS011;28991;52.028;5.526;2023-09-19T12:55:28;0.88;;;0.60;;
40288;SDS011;28991;52.028;5.526;2023-09-19T12:58:12;5.35;;;0.90;;
40288;SDS011;28991;52.028;5.526;2023-09-19T13:00:40;1.73;;;0.70;;
40288;SDS011;28991;52.028;5.526;2023-09-19T13:05:50;1.52;;;0.55;;
40288;SDS011;28991;52.028;5.526;2023-09-19T13:09:07;1.70;;;0.75;;
40288;SDS011;28991;52.028;5.526;2023-09-19T13:11:35;1.58;;;0.60;;
40288;SDS011;28991;52.028;5.526;2023-09-19T13:14:18;2.08;;;0.70;;
40288;SDS011;28991;52.028;5.526;2023-09-19T13:17:01;1.65;;;0.60;;
40288;SDS011;28991;52.028;5.526;2023-09-19T13:22:05;1.92;;;0.70;;
40288;SDS011;28991;52.028;5.526;2023-09-19T13:24:51;1.05;;;0.40;;
40288;SDS011;28991;52.028;5.526;2023-09-19T13:27:17;1.73;;;0.60;;
40288;SDS011;28991;52.028;5.526;2023-09-19T13:29:42;1.40;;;0.50;;
40288;SDS011;28991;52.028;5.526;2023-09-19T13:32:08;1.52;;;0.50;;
40288;SDS011;28991;52.028;5.526;2023-09-19T13:34:36;2.17;;;0.47;;
40288;SDS011;28991;52.028;5.526;2023-09-19T13:37:02;2.15;;;0.60;;
40288;SDS011;28991;52.028;5.526;2023-09-19T13:39:29;1.20;;;0.50;;
40288;SDS011;28991;52.028;5.526;2023-09-19T13:41:55;3.45;;;0.40;;
40288;SDS011;28991;52.028;5.526;2023-09-19T13:44:20;1.38;;;0.47;;
40288;SDS011;28991;52.028;5.526;2023-09-19T13:46:46;0.40;;;0.40;;
40288;SDS011;28991;52.028;5.526;2023-09-19T13:49:12;0.75;;;0.43;;
40288;SDS011;28991;52.028;5.526;2023-09-19T13:51:37;0.68;;;0.40;;
40288;SDS011;28991;52.028;5.526;2023-09-19T13:54:03;1.02;;;0.30;;
40288;SDS011;28991;52.028;5.526;2023-09-19T13:56:28;0.28;;;0.28;;
40288;SDS011;28991;52.028;5.526;2023-09-19T13:58:55;0.60;;;0.40;;
40288;SDS011;28991;52.028;5.526;2023-09-19T14:01:20;1.35;;;0.43;;
40288;SDS011;28991;52.028;5.526;2023-09-19T14:03:46;1.50;;;0.65;;
40288;SDS011;28991;52.028;5.526;2023-09-19T14:06:16;0.85;;;0.40;;
40288;SDS011;28991;52.028;5.526;2023-09-19T14:08:42;2.35;;;0.38;;
40288;SDS011;28991;52.028;5.526;2023-09-19T14:11:09;0.73;;;0.40;;
40288;SDS011;28991;52.028;5.526;2023-09-19T14:13:35;3.90;;;0.85;;
40288;SDS011;28991;52.028;5.526;2023-09-19T14:16:04;0.63;;;0.30;;
40288;SDS011;28991;52.028;5.526;2023-09-19T14:18:30;1.05;;;0.40;;
40288;SDS011;28991;52.028;5.526;2023-09-19T14:20:56;2.03;;;0.50;;
40288;SDS011;28991;52.028;5.526;2023-09-19T14:23:22;2.33;;;0.40;;
40288;SDS011;28991;52.028;5.526;2023-09-19T14:25:48;0.20;;;0.20;;
40288;SDS011;28991;52.028;5.526;2023-09-19T14:28:15;0.68;;;0.30;;
40288;SDS011;28991;52.028;5.526;2023-09-19T14:30:41;0.60;;;0.40;;
40288;SDS011;28991;52.028;5.526;2023-09-19T14:33:06;1.08;;;0.40;;
40288;SDS011;28991;52.028;5.526;2023-09-19T14:35:32;0.50;;;0.30;;
40288;SDS011;28991;52.028;5.526;2023-09-19T14:37:58;1.58;;;0.43;;
40288;SDS011;28991;52.028;5.526;2023-09-19T14:40:23;0.95;;;0.40;;
40288;SDS011;28991;52.028;5.526;2023-09-19T14:42:52;1.10;;;0.50;;
40288;SDS011;28991;52.028;5.526;2023-09-19T14:45:17;1.10;;;0.50;;
40288;SDS011;28991;52.028;5.526;2023-09-19T14:47:45;0.38;;;0.20;;
40288;SDS011;28991;52.028;5.526;2023-09-19T14:50:11;2.67;;;0.40;;
40288;SDS011;28991;52.028;5.526;2023-09-19T14:52:38;1.17;;;0.60;;
40288;SDS011;28991;52.028;5.526;2023-09-19T14:55:05;0.45;;;0.38;;
40288;SDS011;28991;52.028;5.526;2023-09-19T14:57:31;0.63;;;0.40;;
40288;SDS011;28991;52.028;5.526;2023-09-19T15:00:05;2.65;;;0.43;;
40288;SDS011;28991;52.028;5.526;2023-09-19T15:05:02;0.68;;;0.50;;
40288;SDS011;28991;52.028;5.526;2023-09-19T15:07:28;0.47;;;0.38;;
40288;SDS011;28991;52.028;5.526;2023-09-19T15:09:54;0.38;;;0.28;;
40288;SDS011;28991;52.028;5.526;2023-09-19T15:12:19;1.83;;;0.38;;
40288;SDS011;28991;52.028;5.526;2023-09-19T15:14:45;0.35;;;0.30;;
40288;SDS011;28991;52.028;5.526;2023-09-19T15:17:10;0.70;;;0.40;;
40288;SDS011;28991;52.028;5.526;2023-09-19T15:19:36;0.60;;;0.30;;
40288;SDS011;28991;52.028;5.526;2023-09-19T15:22:02;0.45;;;0.28;;
40288;SDS011;28991;52.028;5.526;2023-09-19T15:24:28;0.68;;;0.40;;
40288;SDS011;28991;52.028;5.526;2023-09-19T15:26:54;0.82;;;0.40;;
40288;SDS011;28991;52.028;5.526;2023-09-19T15:29:20;0.22;;;0.20;;
40288;SDS011;28991;52.028;5.526;2023-09-19T15:31:46;0.80;;;0.32;;
40288;SDS011;28991;52.028;5.526;2023-09-19T15:34:11;1.40;;;0.30;;
40288;SDS011;28991;52.028;5.526;2023-09-19T15:36:40;0.50;;;0.40;;
40288;SDS011;28991;52.028;5.526;2023-09-19T15:39:07;0.40;;;0.40;;
40288;SDS011;28991;52.028;5.526;2023-09-19T15:41:36;1.75;;;0.40;;
40288;SDS011;28991;52.028;5.526;2023-09-19T15:44:03;0.52;;;0.40;;
40288;SDS011;28991;52.028;5.526;2023-09-19T15:46:29;0.50;;;0.30;;
40288;SDS011;28991;52.028;5.526;2023-09-19T15:48:59;0.40;;;0.38;;
40288;SDS011;28991;52.028;5.526;2023-09-19T15:51:25;0.28;;;0.28;;
40288;SDS011;28991;52.028;5.526;2023-09-19T15:53:52;0.45;;;0.30;;
40288;SDS011;28991;52.028;5.526;2023-09-19T15:56:19;0.40;;;0.30;;
40288;SDS011;28991;52.028;5.526;2023-09-19T15:58:52;0.60;;;0.30;;